createdAt,value
2022-12-17T00:01:09.565Z,22.57
2022-12-17T00:03:56.956Z,24.80
2022-12-17T00:06:43.063Z,25.43
2022-12-17T00:09:28.944Z,22.00
2022-12-17T00:12:14.701Z,18.90
2022-12-17T00:15:02.724Z,23.53
2022-12-17T00:17:49.221Z,21.33
2022-12-17T00:20:50.827Z,24.20
2022-12-17T00:23:38.466Z,19.10
2022-12-17T00:26:24.789Z,22.80
2022-12-17T00:29:25.453Z,21.77
2022-12-17T00:32:11.701Z,22.90
2022-12-17T00:34:57.492Z,24.43
2022-12-17T00:37:44.712Z,25.03
2022-12-17T00:40:31.216Z,23.17
2022-12-17T00:43:20.794Z,25.10
2022-12-17T00:46:07.879Z,23.37
2022-12-17T00:48:54.254Z,23.93
2022-12-17T00:51:43.420Z,24.60
2022-12-17T00:54:31.084Z,23.10
2022-12-17T00:57:17.299Z,24.30
2022-12-17T01:00:08.405Z,24.03
2022-12-17T01:02:56.144Z,23.03
2022-12-17T01:05:42.539Z,25.50
2022-12-17T01:08:30.350Z,25.17
2022-12-17T01:11:21.626Z,22.17
2022-12-17T01:14:07.591Z,22.53
2022-12-17T01:16:56.201Z,23.57
2022-12-17T01:19:42.809Z,22.33
2022-12-17T01:22:29.404Z,23.17
2022-12-17T01:25:15.164Z,22.70
2022-12-17T01:28:02.336Z,24.70
2022-12-17T01:30:48.454Z,25.53
2022-12-17T01:33:34.756Z,22.47
2022-12-17T01:36:20.903Z,24.07
2022-12-17T01:39:07.530Z,23.10
2022-12-17T01:41:53.943Z,23.93
2022-12-17T01:45:07.571Z,24.87
2022-12-17T01:47:57.264Z,25.53
2022-12-17T01:50:46.080Z,24.80
2022-12-17T01:53:33.697Z,25.13
2022-12-17T01:56:20.766Z,24.30
2022-12-17T01:59:07.501Z,23.77
2022-12-17T02:01:56.289Z,24.63
2022-12-17T02:04:42.525Z,26.17
2022-12-17T02:07:44.262Z,22.23
2022-12-17T02:10:41.740Z,23.53
2022-12-17T02:13:32.777Z,23.80
2022-12-17T02:16:25.708Z,25.70
2022-12-17T02:19:17.014Z,26.27
2022-12-17T02:22:04.241Z,28.13
2022-12-17T02:24:54.842Z,25.43
2022-12-17T02:27:43.535Z,27.23
2022-12-17T02:30:44.427Z,26.50
2022-12-17T02:33:32.249Z,23.93
2022-12-17T02:36:23.551Z,22.70
2022-12-17T02:39:09.373Z,27.37
2022-12-17T02:42:09.224Z,24.00
2022-12-17T02:44:58.079Z,27.20
2022-12-17T02:47:44.027Z,24.90
2022-12-17T02:50:31.069Z,26.50
2022-12-17T02:53:18.608Z,26.27
2022-12-17T02:56:04.460Z,27.67
2022-12-17T02:58:53.032Z,25.97
2022-12-17T03:01:40.501Z,25.57
2022-12-17T03:04:26.716Z,26.57
2022-12-17T03:07:12.547Z,26.17
2022-12-17T03:09:58.565Z,26.70
2022-12-17T03:12:44.406Z,27.00
2022-12-17T03:15:30.704Z,24.23
2022-12-17T03:18:18.135Z,25.37
2022-12-17T03:21:15.635Z,28.67
2022-12-17T03:24:01.680Z,27.17
2022-12-17T03:26:47.604Z,26.10
2022-12-17T03:29:33.553Z,24.47
2022-12-17T03:32:19.345Z,26.97
2022-12-17T03:35:15.043Z,25.03
2022-12-17T03:38:01.123Z,24.70
2022-12-17T03:40:47.047Z,25.80
2022-12-17T03:43:33.269Z,28.50
2022-12-17T03:46:19.245Z,24.03
2022-12-17T03:49:05.174Z,25.57
2022-12-17T03:51:52.493Z,27.13
2022-12-17T03:54:50.001Z,25.07
2022-12-17T03:57:36.232Z,25.70
2022-12-17T04:00:22.782Z,26.17
2022-12-17T04:03:08.607Z,25.03
2022-12-17T04:05:54.612Z,28.10
2022-12-17T04:08:42.241Z,27.23
2022-12-17T04:11:28.457Z,26.03
2022-12-17T04:14:14.707Z,27.50
2022-12-17T04:17:00.544Z,26.77
2022-12-17T04:19:46.405Z,27.23
2022-12-17T04:22:32.630Z,24.77
2022-12-17T04:25:20.182Z,25.77
2022-12-17T04:28:06.131Z,27.53
2022-12-17T04:30:52.401Z,26.83
2022-12-17T04:33:38.813Z,25.93
2022-12-17T04:36:25.386Z,24.00
2022-12-17T04:39:11.249Z,27.63
2022-12-17T04:41:58.470Z,25.20
2022-12-17T04:44:40.875Z,27.47
2022-12-17T04:47:27.009Z,27.57
2022-12-17T04:50:12.841Z,24.43
2022-12-17T04:52:58.651Z,27.27
2022-12-17T04:55:44.868Z,24.90
2022-12-17T04:58:32.375Z,27.67
2022-12-17T05:01:18.516Z,25.57
2022-12-17T05:04:12.785Z,24.13
2022-12-17T05:06:57.830Z,25.23
2022-12-17T05:09:44.252Z,27.20
2022-12-17T05:12:30.108Z,26.90
2022-12-17T05:15:17.645Z,26.03
2022-12-17T05:18:18.772Z,26.40
2022-12-17T05:21:04.719Z,25.90
2022-12-17T05:24:02.155Z,28.40
2022-12-17T05:26:48.177Z,26.53
2022-12-17T05:29:34.321Z,24.43
2022-12-17T05:32:22.052Z,24.47
2022-12-17T05:35:07.997Z,27.77
2022-12-17T05:37:54.008Z,27.07
2022-12-17T05:40:39.889Z,25.60
2022-12-17T05:43:29.149Z,24.37
2022-12-17T05:46:15.106Z,27.47
2022-12-17T05:49:02.876Z,27.47
2022-12-17T05:51:49.665Z,26.77
2022-12-17T05:54:35.558Z,26.37
2022-12-17T05:57:22.078Z,25.00
2022-12-17T06:00:07.848Z,26.90
2022-12-17T06:03:02.861Z,27.93
2022-12-17T06:05:50.042Z,28.00
2022-12-17T06:08:35.975Z,27.53
2022-12-17T06:11:21.756Z,27.73
2022-12-17T06:14:07.580Z,30.27
2022-12-17T06:16:53.570Z,27.33
2022-12-17T06:19:39.427Z,25.30
2022-12-17T06:22:26.531Z,27.43
2022-12-17T06:25:12.493Z,25.93
2022-12-17T06:27:58.820Z,27.27
2022-12-17T06:30:44.627Z,26.40
2022-12-17T06:33:30.793Z,30.97
2022-12-17T06:36:22.653Z,24.27
2022-12-17T06:39:10.724Z,27.67
2022-12-17T06:42:03.753Z,26.67
2022-12-17T06:44:50.757Z,27.37
2022-12-17T06:47:37.044Z,26.07
2022-12-17T06:50:23.865Z,26.67
2022-12-17T06:53:17.631Z,27.97
2022-12-17T06:56:04.967Z,28.23
2022-12-17T06:58:51.240Z,28.60
2022-12-17T07:01:37.383Z,28.30
2022-12-17T07:04:23.880Z,30.00
2022-12-17T07:07:10.024Z,26.13
2022-12-17T07:09:55.770Z,26.57
2022-12-17T07:12:44.460Z,26.00
2022-12-17T07:15:30.360Z,29.97
2022-12-17T07:18:17.397Z,25.60
2022-12-17T07:21:03.919Z,26.33
2022-12-17T07:23:50.920Z,26.60
2022-12-17T07:26:37.217Z,29.57
2022-12-17T07:29:24.324Z,27.17
2022-12-17T07:32:10.516Z,27.07
2022-12-17T07:34:56.676Z,28.40
2022-12-17T07:37:42.501Z,28.10
2022-12-17T07:40:29.509Z,27.33
2022-12-17T07:43:16.545Z,30.90
2022-12-17T07:46:03.689Z,27.47
2022-12-17T07:48:49.863Z,25.77
2022-12-17T07:51:35.906Z,26.83
2022-12-17T07:54:21.905Z,28.77
2022-12-17T07:57:07.877Z,29.30
2022-12-17T07:59:53.662Z,29.03
2022-12-17T08:02:40.565Z,30.00
2022-12-17T08:05:27.669Z,28.77
2022-12-17T08:08:13.590Z,30.00
2022-12-17T08:11:07.790Z,25.10
2022-12-17T08:13:54.012Z,27.37
2022-12-17T08:16:40.309Z,27.03
2022-12-17T08:19:27.468Z,31.00
2022-12-17T08:22:15.544Z,27.07
2022-12-17T08:25:01.789Z,27.10
2022-12-17T08:27:47.571Z,27.07
2022-12-17T08:30:33.625Z,27.90
2022-12-17T08:33:21.743Z,28.20
2022-12-17T08:36:13.094Z,27.67
2022-12-17T08:38:59.236Z,28.20
2022-12-17T08:41:54.037Z,29.20
2022-12-17T08:44:41.022Z,29.73
2022-12-17T08:47:26.836Z,29.57
2022-12-17T08:50:12.532Z,26.33
2022-12-17T08:53:01.275Z,28.13
2022-12-17T08:55:47.603Z,23.97
2022-12-17T08:58:33.553Z,27.03
2022-12-17T09:01:20.443Z,20.93
2022-12-17T09:04:06.885Z,23.83
2022-12-17T09:06:53.070Z,25.33
2022-12-17T09:09:40.589Z,24.87
2022-12-17T09:12:26.789Z,26.17
2022-12-17T09:15:12.848Z,28.30
2022-12-17T09:17:59.111Z,29.13
2022-12-17T09:20:45.139Z,29.37
2022-12-17T09:23:34.671Z,28.43
2022-12-17T09:26:22.489Z,28.37
2022-12-17T09:29:08.807Z,28.17
2022-12-17T09:31:55.212Z,29.47
2022-12-17T09:34:43.892Z,27.60
2022-12-17T09:37:29.949Z,32.70
2022-12-17T09:40:15.997Z,27.30
2022-12-17T09:43:10.813Z,29.33
2022-12-17T09:46:02.204Z,29.87
2022-12-17T09:48:54.535Z,28.73
2022-12-17T09:51:42.251Z,29.50
2022-12-17T09:54:39.960Z,27.70
2022-12-17T09:57:31.416Z,29.90
2022-12-17T10:00:19.232Z,27.93
2022-12-17T10:03:05.182Z,29.10
2022-12-17T10:05:51.389Z,27.73
2022-12-17T10:08:39.301Z,29.70
2022-12-17T10:11:34.897Z,29.70
2022-12-17T10:14:22.470Z,30.57
2022-12-17T10:17:12.056Z,30.63
2022-12-17T10:19:59.846Z,27.93
2022-12-17T10:22:45.976Z,29.50
2022-12-17T10:25:34.938Z,30.00
2022-12-17T10:28:23.827Z,28.03
2022-12-17T10:31:09.601Z,30.43
2022-12-17T10:33:58.571Z,29.33
2022-12-17T10:36:42.120Z,32.87
2022-12-17T10:39:34.681Z,31.33
2022-12-17T10:42:21.430Z,31.13
2022-12-17T10:45:19.464Z,25.10
2022-12-17T10:48:05.947Z,32.17
2022-12-17T10:51:00.178Z,30.40
2022-12-17T10:53:46.711Z,30.03
2022-12-17T10:56:39.218Z,29.73
2022-12-17T10:59:30.241Z,29.90
2022-12-17T11:02:17.204Z,50.53
2022-12-17T11:05:10.596Z,30.17
2022-12-17T11:08:00.518Z,30.50
2022-12-17T11:10:49.926Z,29.57
2022-12-17T11:13:40.347Z,29.33
2022-12-17T11:16:34.316Z,34.47
2022-12-17T11:19:34.357Z,29.17
2022-12-17T11:22:23.784Z,29.07
2022-12-17T11:25:17.772Z,31.27
2022-12-17T11:28:06.832Z,29.07
2022-12-17T11:30:59.434Z,28.20
2022-12-17T11:33:43.741Z,32.00
2022-12-17T11:36:38.722Z,30.63
2022-12-17T11:39:30.376Z,29.43
2022-12-17T11:42:22.532Z,30.60
2022-12-17T11:45:12.061Z,31.47
2022-12-17T11:48:01.380Z,29.07
2022-12-17T11:50:54.901Z,31.87
2022-12-17T11:53:55.468Z,34.40
2022-12-17T11:56:44.511Z,30.03
2022-12-17T11:59:40.000Z,28.30
2022-12-17T12:02:36.607Z,31.70
2022-12-17T12:05:36.431Z,29.67
2022-12-17T12:08:31.108Z,29.37
2022-12-17T12:11:24.664Z,29.67
2022-12-17T12:14:20.079Z,32.07
2022-12-17T12:17:12.720Z,33.50
2022-12-17T12:20:04.637Z,34.37
2022-12-17T12:22:54.437Z,32.57
2022-12-17T12:25:47.933Z,31.03
2022-12-17T12:28:41.892Z,31.13
2022-12-17T12:31:35.436Z,33.03
2022-12-17T12:34:27.504Z,31.50
2022-12-17T12:37:14.431Z,32.30
2022-12-17T12:40:08.002Z,30.97
2022-12-17T12:42:59.648Z,28.63
2022-12-17T12:45:52.512Z,30.60
2022-12-17T12:48:47.050Z,33.10
2022-12-17T12:51:38.791Z,31.30
2022-12-17T12:54:40.759Z,30.83
2022-12-17T12:57:48.437Z,31.40
2022-12-17T13:01:07.937Z,33.17
2022-12-17T13:03:56.822Z,28.43
2022-12-17T13:06:47.362Z,30.70
2022-12-17T13:09:34.473Z,32.90
2022-12-17T13:12:27.828Z,31.03
2022-12-17T13:15:00.815Z,30.03
2022-12-17T13:17:35.560Z,31.37
2022-12-17T13:20:23.312Z,33.83
2022-12-17T13:22:55.421Z,22.03
2022-12-17T13:25:24.277Z,30.57
2022-12-17T13:27:52.723Z,30.97
2022-12-17T13:30:42.081Z,30.60
2022-12-17T13:33:23.885Z,32.93
2022-12-17T13:36:04.294Z,31.23
2022-12-17T13:38:39.209Z,31.67
2022-12-17T13:41:10.341Z,31.90
2022-12-17T13:43:45.910Z,31.43
2022-12-17T13:46:22.796Z,32.87
2022-12-17T13:48:56.366Z,32.53
2022-12-17T13:51:25.756Z,32.30
2022-12-17T13:53:57.823Z,33.47
2022-12-17T13:56:29.169Z,32.50
2022-12-17T13:59:07.985Z,30.50
2022-12-17T14:01:45.870Z,30.87
2022-12-17T14:04:22.679Z,32.13
2022-12-17T14:06:52.977Z,36.27
2022-12-17T14:09:25.189Z,33.47
2022-12-17T14:12:11.359Z,34.93
2022-12-17T14:14:41.543Z,34.47
2022-12-17T14:17:17.814Z,31.93
2022-12-17T14:19:46.355Z,35.23
2022-12-17T14:22:17.937Z,36.03
2022-12-17T14:24:47.829Z,36.00
2022-12-17T14:27:26.527Z,35.73
2022-12-17T14:29:56.750Z,37.93
2022-12-17T14:32:27.949Z,33.90
2022-12-17T14:35:00.673Z,34.60
2022-12-17T14:37:30.493Z,35.70
2022-12-17T14:40:03.247Z,37.37
2022-12-17T14:42:36.232Z,36.40
2022-12-17T14:45:07.730Z,34.47
2022-12-17T14:47:37.240Z,35.70
2022-12-17T14:50:08.222Z,33.63
2022-12-17T14:52:40.060Z,36.33
2022-12-17T14:55:29.068Z,35.77
2022-12-17T14:58:23.277Z,39.37
2022-12-17T15:00:54.961Z,34.00
2022-12-17T15:03:26.582Z,34.77
2022-12-17T15:05:58.966Z,35.97
2022-12-17T15:08:30.638Z,39.07
2022-12-17T15:11:00.452Z,35.03
2022-12-17T15:13:29.034Z,37.20
2022-12-17T15:15:57.719Z,37.33
2022-12-17T15:18:26.351Z,39.73
2022-12-17T15:20:54.883Z,37.33
2022-12-17T15:23:25.269Z,35.90
2022-12-17T15:25:55.091Z,38.57
2022-12-17T15:28:25.292Z,37.83
2022-12-17T15:30:53.861Z,37.57
2022-12-17T15:33:22.663Z,38.07
2022-12-17T15:35:51.191Z,39.53
2022-12-17T15:38:19.640Z,38.40
2022-12-17T15:40:48.441Z,38.30
2022-12-17T15:43:16.027Z,40.10
2022-12-17T15:45:47.125Z,38.30
2022-12-17T15:48:17.010Z,39.37
2022-12-17T15:50:45.513Z,36.93
2022-12-17T15:53:14.271Z,40.97
2022-12-17T15:55:43.049Z,40.73
2022-12-17T15:58:11.799Z,42.23
2022-12-17T16:00:40.218Z,39.97
2022-12-17T16:03:10.196Z,41.33
2022-12-17T16:05:38.865Z,46.97
2022-12-17T16:08:07.866Z,44.67
2022-12-17T16:10:36.292Z,43.63
2022-12-17T16:13:05.212Z,42.33
2022-12-17T16:15:33.864Z,50.77
2022-12-17T16:18:02.492Z,61.37
2022-12-17T16:20:32.293Z,54.10
2022-12-17T16:23:01.094Z,63.70
2022-12-17T16:25:29.608Z,57.37
2022-12-17T16:27:58.051Z,58.20
2022-12-17T16:30:26.576Z,80.50
2022-12-17T16:32:55.012Z,57.40
2022-12-17T16:35:23.992Z,45.40
2022-12-17T16:37:53.802Z,59.80
2022-12-17T16:40:22.347Z,72.90
2022-12-17T16:42:50.866Z,86.43
2022-12-17T16:45:19.562Z,71.40
2022-12-17T16:47:48.144Z,59.73
2022-12-17T16:50:16.901Z,61.57
2022-12-17T16:52:45.394Z,62.93
2022-12-17T16:55:15.415Z,62.87
2022-12-17T16:57:44.108Z,59.13
2022-12-17T17:00:13.391Z,63.63
2022-12-17T17:02:41.993Z,65.03
2022-12-17T17:05:10.574Z,69.50
2022-12-17T17:07:39.073Z,59.87
2022-12-17T17:10:08.264Z,55.07
2022-12-17T17:12:38.249Z,56.10
2022-12-17T17:15:07.967Z,56.50
2022-12-17T17:17:54.085Z,61.43
2022-12-17T17:20:23.698Z,60.77
2022-12-17T17:22:52.263Z,62.07
2022-12-17T17:25:21.327Z,68.70
2022-12-17T17:27:51.329Z,45.20
2022-12-17T17:30:20.013Z,72.13
2022-12-17T17:32:48.875Z,63.33
2022-12-17T17:35:17.448Z,63.53
2022-12-17T17:37:46.012Z,62.97
2022-12-17T17:40:14.892Z,74.03
2022-12-17T17:42:46.152Z,75.97
2022-12-17T17:45:19.996Z,81.47
2022-12-17T17:47:48.873Z,80.23
2022-12-17T17:50:17.536Z,78.73
2022-12-17T17:52:46.082Z,77.43
2022-12-17T17:55:14.741Z,75.33
2022-12-17T17:57:43.238Z,74.50
2022-12-17T18:00:13.024Z,76.47
2022-12-17T18:02:43.236Z,75.80
2022-12-17T18:05:12.094Z,81.43
2022-12-17T18:07:40.672Z,68.97
2022-12-17T18:10:10.496Z,75.50
2022-12-17T18:12:56.502Z,70.20
2022-12-17T18:15:25.015Z,70.83
2022-12-17T18:17:56.540Z,69.73
2022-12-17T18:20:25.819Z,69.17
2022-12-17T18:22:54.648Z,70.50
2022-12-17T18:25:23.318Z,72.83
2022-12-17T18:27:53.660Z,69.20
2022-12-17T18:30:22.274Z,73.87
2022-12-17T18:32:51.470Z,73.53
2022-12-17T18:35:21.724Z,71.43
2022-12-17T18:37:50.306Z,74.73
2022-12-17T18:40:19.064Z,74.93
2022-12-17T18:43:05.157Z,76.80
2022-12-17T18:45:38.248Z,75.53
2022-12-17T18:48:07.133Z,72.60
2022-12-17T18:50:37.033Z,67.07
2022-12-17T18:53:05.530Z,68.20
2022-12-17T18:55:34.394Z,63.30
2022-12-17T18:58:02.988Z,66.83
2022-12-17T19:00:31.638Z,67.73
2022-12-17T19:03:00.736Z,67.80
2022-12-17T19:05:29.422Z,66.47
2022-12-17T19:07:59.296Z,67.37
2022-12-17T19:10:27.754Z,61.07
2022-12-17T19:12:56.242Z,59.67
2022-12-17T19:15:24.768Z,58.30
2022-12-17T19:17:53.212Z,55.07
2022-12-17T19:20:21.657Z,54.17
2022-12-17T19:22:50.134Z,51.83
2022-12-17T19:25:20.181Z,51.90
2022-12-17T19:27:48.704Z,48.70
2022-12-17T19:30:17.249Z,51.43
2022-12-17T19:32:45.785Z,57.63
2022-12-17T19:35:14.264Z,57.47
2022-12-17T19:37:42.744Z,53.27
2022-12-17T19:40:12.731Z,55.73
2022-12-17T19:42:42.592Z,54.70
2022-12-17T19:45:12.283Z,56.60
2022-12-17T19:47:40.762Z,57.93
2022-12-17T19:50:09.932Z,56.10
2022-12-17T19:52:39.649Z,50.33
2022-12-17T19:55:08.843Z,53.37
2022-12-17T19:57:37.385Z,54.67
2022-12-17T20:00:08.549Z,46.07
2022-12-17T20:02:41.460Z,48.10
2022-12-17T20:05:10.970Z,56.73
2022-12-17T20:07:40.801Z,47.57
2022-12-17T20:10:10.203Z,49.47
2022-12-17T20:12:38.995Z,48.30
2022-12-17T20:15:09.686Z,48.33
2022-12-17T20:17:38.272Z,51.63
2022-12-17T20:20:07.820Z,55.33
2022-12-17T20:22:36.351Z,54.93
2022-12-17T20:25:09.314Z,50.00
2022-12-17T20:27:37.860Z,49.27
2022-12-17T20:30:09.208Z,51.80
2022-12-17T20:32:38.552Z,49.33
2022-12-17T20:35:08.382Z,50.50
2022-12-17T20:37:36.894Z,47.80
2022-12-17T20:40:06.856Z,50.83
2022-12-17T20:42:36.369Z,52.63
2022-12-17T20:45:05.606Z,47.33
2022-12-17T20:47:35.457Z,45.60
2022-12-17T20:50:04.109Z,48.60
2022-12-17T20:52:32.648Z,54.03
2022-12-17T20:55:01.133Z,52.07
2022-12-17T20:57:29.681Z,51.57
2022-12-17T20:59:58.219Z,54.80
2022-12-17T21:02:27.455Z,54.47
2022-12-17T21:04:57.546Z,54.20
2022-12-17T21:07:26.341Z,57.23
2022-12-17T21:09:54.921Z,52.87
2022-12-17T21:12:23.494Z,70.33
2022-12-17T21:14:51.989Z,59.10
2022-12-17T21:17:20.610Z,53.77
2022-12-17T21:19:49.166Z,51.10
2022-12-17T21:22:19.107Z,47.97
2022-12-17T21:24:47.627Z,45.77
2022-12-17T21:27:17.209Z,43.97
2022-12-17T21:29:46.054Z,43.70
2022-12-17T21:32:16.564Z,41.13
2022-12-17T21:34:45.381Z,40.07
2022-12-17T21:37:13.970Z,43.83
2022-12-17T21:39:43.843Z,43.60
2022-12-17T21:42:29.726Z,41.67
2022-12-17T21:44:58.445Z,49.33
2022-12-17T21:47:27.310Z,66.90
2022-12-17T21:49:55.781Z,46.97
2022-12-17T21:52:24.357Z,47.10
2022-12-17T21:54:54.161Z,49.63
2022-12-17T21:57:22.853Z,50.33
2022-12-17T21:59:51.327Z,55.07
2022-12-17T22:02:21.206Z,61.30
2022-12-17T22:04:50.135Z,58.87
2022-12-17T22:07:25.351Z,80.50
2022-12-17T22:10:19.514Z,71.83
2022-12-17T22:13:08.971Z,75.03
2022-12-17T22:15:40.712Z,97.30
2022-12-17T22:18:16.735Z,66.53
2022-12-17T22:20:45.351Z,66.50
2022-12-17T22:23:13.823Z,64.20
2022-12-17T22:25:48.991Z,72.57
2022-12-17T22:28:20.448Z,80.73
2022-12-17T22:31:06.254Z,67.03
2022-12-17T22:33:59.985Z,55.03
2022-12-17T22:37:49.590Z,59.67
2022-12-17T22:42:56.751Z,69.50
2022-12-17T22:44:35.707Z,69.77
2022-12-17T22:45:12.554Z,66.57
2022-12-17T22:47:41.558Z,60.30
2022-12-17T22:50:10.902Z,65.37
2022-12-17T22:52:40.017Z,57.63
2022-12-17T22:55:09.360Z,69.80
2022-12-17T22:57:39.412Z,72.20
2022-12-17T23:00:12.343Z,71.00
2022-12-17T23:02:40.895Z,91.00
2022-12-17T23:05:09.849Z,66.43
2022-12-17T23:07:38.405Z,74.70
2022-12-17T23:10:07.572Z,70.03
2022-12-17T23:12:54.854Z,72.83
2022-12-17T23:15:28.228Z,77.33
2022-12-17T23:17:58.637Z,62.10
2022-12-17T23:20:28.209Z,56.83
2022-12-17T23:22:57.613Z,51.00
2022-12-17T23:25:26.916Z,62.67
2022-12-17T23:27:55.577Z,57.83
2022-12-17T23:30:25.479Z,47.57
2022-12-17T23:32:53.993Z,51.97
2022-12-17T23:35:22.448Z,52.63
2022-12-17T23:37:50.954Z,47.13
2022-12-17T23:40:19.512Z,46.80
2022-12-17T23:42:48.045Z,44.97
2022-12-17T23:45:16.568Z,44.70
2022-12-17T23:47:46.368Z,51.73
2022-12-17T23:50:14.920Z,42.40
2022-12-17T23:52:43.379Z,43.53
2022-12-17T23:55:12.412Z,39.10
2022-12-17T23:57:40.973Z,39.73
